Time;durP1;ratioP1;P1;durP2;ratioP2;P2;SDS_P1;SDS_P2;PMS_P1;PMS_P2;Temp;Humidity;BMP_temperature;BMP_pressure;BME280_temperature;BME280_humidity;BME280_pressure;Samples;Min_cycle;Max_cycle;Signal;HPM_P1;HPM_P2
2022/03/12 00:00:43;;;;;;;0.20;0.20;;;;;;;4.81;39.53;101211.13;5054276;28;20093;-73
2022/03/12 00:03:10;;;;;;;0.20;0.20;;;;;;;4.71;39.63;101193.63;5036238;28;20032;-74
2022/03/12 00:05:36;;;;;;;0.20;0.20;;;;;;;4.80;41.85;101215.03;5037235;28;20055;-73
2022/03/12 00:08:04;;;;;;;0.20;0.20;;;;;;;4.81;40.17;101211.13;5054091;28;20028;-73
2022/03/12 00:10:32;;;;;;;0.20;0.20;;;;;;;4.88;40.13;101225.34;5036278;28;20024;-73
2022/03/12 00:12:58;;;;;;;0.20;0.20;;;;;;;4.85;39.57;101223.22;5054097;28;20111;-73
2022/03/12 00:15:24;;;;;;;0.20;0.20;;;;;;;4.91;39.63;101227.53;5053682;28;20064;-73
2022/03/12 00:17:50;;;;;;;0.20;0.20;;;;;;;4.94;40.32;101232.44;5036135;28;20052;-73
2022/03/12 00:20:19;;;;;;;0.20;0.20;;;;;;;4.97;40.73;101231.84;5036197;28;20115;-73
2022/03/12 00:22:51;;;;;;;0.20;0.20;;;;;;;5.12;40.56;101217.81;5035668;28;20559;-73
2022/03/12 00:25:19;;;;;;;0.20;0.20;;;;;;;4.98;40.55;101205.88;5036033;28;20025;-73
2022/03/12 00:27:46;;;;;;;0.20;0.20;;;;;;;5.09;40.72;101228.63;5035888;28;20080;-73
2022/03/12 00:30:16;;;;;;;0.20;0.20;;;;;;;5.03;40.16;101219.59;5036644;28;20024;-73
2022/03/12 00:32:42;;;;;;;0.20;0.20;;;;;;;4.97;40.06;101226.31;5054113;28;20025;-73
2022/03/12 00:35:11;;;;;;;0.20;0.20;;;;;;;5.03;38.48;101216.84;5036065;28;20032;-73
2022/03/12 00:37:37;;;;;;;0.20;0.20;;;;;;;5.00;38.46;101220.19;5035995;28;20036;-72
2022/03/12 00:40:04;;;;;;;0.20;0.20;;;;;;;4.81;37.85;101200.94;5035903;28;20029;-73
2022/03/12 00:42:30;;;;;;;0.20;0.20;;;;;;;4.90;37.96;101209.31;5035867;28;20032;-73
2022/03/12 00:44:56;;;;;;;0.20;0.20;;;;;;;5.10;38.11;101209.00;5036431;28;20446;-72
2022/03/12 00:47:22;;;;;;;0.20;0.20;;;;;;;5.20;37.18;101200.56;5053296;28;20056;-72
2022/03/12 00:49:50;;;;;;;0.20;0.20;;;;;;;5.10;37.50;101206.25;5053868;28;20025;-72
2022/03/12 00:52:17;;;;;;;0.20;0.20;;;;;;;5.21;36.88;101199.41;5035668;28;20021;-74
2022/03/12 00:54:43;;;;;;;0.20;0.20;;;;;;;5.24;39.15;101207.09;5036044;28;20031;-73
2022/03/12 00:57:11;;;;;;;0.20;0.20;;;;;;;5.25;39.35;101205.97;5035753;28;20033;-73
2022/03/12 00:59:38;;;;;;;0.20;0.20;;;;;;;5.15;38.57;101200.63;5054337;28;20053;-73
2022/03/12 01:02:04;;;;;;;0.20;0.20;;;;;;;5.12;39.09;101198.50;5035790;28;20029;-73
2022/03/12 01:04:30;;;;;;;0.20;0.20;;;;;;;4.93;37.64;101197.69;5053841;28;20067;-73
2022/03/12 01:06:55;;;;;;;0.20;0.20;;;;;;;4.87;38.19;101187.88;5053345;28;20108;-73
2022/03/12 01:09:21;;;;;;;0.20;0.20;;;;;;;4.85;38.31;101188.19;5035588;28;20063;-73
2022/03/12 01:11:46;;;;;;;0.10;0.10;;;;;;;4.90;37.80;101182.59;5053442;28;20021;-73
2022/03/12 01:14:12;;;;;;;0.20;0.20;;;;;;;4.79;38.55;101185.78;5039346;28;20052;-73
2022/03/12 01:16:38;;;;;;;0.20;0.20;;;;;;;4.72;38.51;101184.22;5057670;28;20063;-73
2022/03/12 01:19:03;;;;;;;0.20;0.20;;;;;;;4.71;39.00;101173.50;5039584;28;20040;-73
2022/03/12 01:21:29;;;;;;;0.20;0.20;;;;;;;4.80;38.47;101170.91;5057559;28;20052;-73
2022/03/12 01:23:55;;;;;;;0.20;0.20;;;;;;;4.91;38.93;101172.38;5057231;28;20451;-73
2022/03/12 01:26:22;;;;;;;0.20;0.20;;;;;;;4.88;39.02;101167.44;5039744;28;20036;-73
2022/03/12 01:28:48;;;;;;;0.20;0.20;;;;;;;4.85;40.23;101168.06;5057012;28;20107;-73
2022/03/12 01:31:15;;;;;;;0.20;0.20;;;;;;;4.93;40.44;101165.41;5039432;28;20021;-73
2022/03/12 01:33:40;;;;;;;0.20;0.20;;;;;;;4.95;39.02;101157.69;5039948;28;20155;-73
2022/03/12 01:36:07;;;;;;;0.20;0.20;;;;;;;4.87;38.56;101158.34;5039959;28;20057;-73
2022/03/12 01:39:00;;;;;;;0.20;0.20;;;;;;;4.67;39.29;101145.72;5057067;28;20041;-73
2022/03/12 01:41:29;;;;;;;0.20;0.20;;;;;;;4.42;39.22;101121.28;5034687;28;20483;-73
2022/03/12 01:43:57;;;;;;;0.20;0.20;;;;;;;4.56;39.61;101152.50;5019486;28;20030;-73
2022/03/12 01:46:36;;;;;;;0.20;0.20;;;;;;;4.43;39.68;101145.81;5018666;28;20041;-73
2022/03/12 01:49:05;;;;;;;0.20;0.20;;;;;;;4.31;39.77;101141.84;5057195;28;20025;-73
2022/03/12 01:51:31;;;;;;;0.20;0.20;;;;;;;4.23;40.07;101134.25;5039665;28;20414;-73
2022/03/12 01:53:58;;;;;;;0.20;0.20;;;;;;;4.20;40.30;101141.16;5056464;28;20025;-73
2022/03/12 01:56:27;;;;;;;0.20;0.20;;;;;;;4.25;40.96;101137.53;5056967;28;20344;-73
2022/03/12 01:58:53;;;;;;;0.20;0.20;;;;;;;4.30;41.99;101134.69;5039198;28;20485;-74
2022/03/12 02:01:19;;;;;;;0.20;0.20;;;;;;;4.52;42.30;101136.84;5038954;28;20032;-73
2022/03/12 02:03:45;;;;;;;0.20;0.20;;;;;;;4.63;41.56;101138.34;5038656;28;20434;-73
2022/03/12 02:06:15;;;;;;;0.20;0.20;;;;;;;4.60;41.71;101144.47;5056185;28;20479;-74
2022/03/12 02:08:41;;;;;;;0.20;0.20;;;;;;;4.60;41.35;101145.28;5038585;28;20025;-72
2022/03/12 02:11:07;;;;;;;0.20;0.20;;;;;;;4.46;42.53;101138.88;5057044;28;20017;-73
2022/03/12 02:13:35;;;;;;;0.20;0.20;;;;;;;4.50;41.40;101139.91;5056690;28;20411;-73
2022/03/12 02:16:09;;;;;;;0.20;0.20;;;;;;;4.68;41.71;101136.31;5038693;28;20021;-72
2022/03/12 02:18:37;;;;;;;0.20;0.20;;;;;;;4.59;42.04;101138.13;5055427;28;20372;-72
2022/03/12 02:21:03;;;;;;;0.20;0.20;;;;;;;4.38;42.20;101153.34;5056403;28;20086;-73
2022/03/12 02:23:29;;;;;;;0.20;0.20;;;;;;;4.34;42.06;101153.09;5039581;28;20131;-74
2022/03/12 02:26:01;;;;;;;0.20;0.20;;;;;;;4.33;42.88;101142.38;5041137;28;20060;-73
2022/03/12 02:28:27;;;;;;;0.20;0.20;;;;;;;4.23;43.74;101139.78;5056409;28;20468;-73
2022/03/12 02:30:55;;;;;;;0.20;0.20;;;;;;;4.42;43.29;101144.19;5054865;28;20029;-73
2022/03/12 02:33:28;;;;;;;0.20;0.20;;;;;;;4.42;43.16;101135.06;5038009;28;20467;-73
2022/03/12 02:35:55;;;;;;;0.20;0.20;;;;;;;4.27;43.51;101146.34;5038393;28;20024;-73
2022/03/12 02:38:21;;;;;;;0.20;0.20;;;;;;;4.23;44.28;101142.53;5037666;28;20037;-73
2022/03/12 02:40:48;;;;;;;0.20;0.20;;;;;;;4.24;43.20;101141.41;5037918;28;20033;-73
2022/03/12 02:43:14;;;;;;;0.20;0.20;;;;;;;4.17;44.44;101142.59;5056720;28;20039;-73
2022/03/12 02:45:40;;;;;;;0.20;0.20;;;;;;;4.09;44.18;101142.44;5039040;28;20443;-73
2022/03/12 02:48:10;;;;;;;0.20;0.20;;;;;;;4.23;43.69;101134.25;5038739;28;20029;-73
2022/03/12 02:50:37;;;;;;;0.20;0.20;;;;;;;4.12;43.57;101148.19;5055671;28;20546;-73
2022/03/12 02:53:03;;;;;;;0.20;0.20;;;;;;;3.90;43.87;101123.16;5038072;28;20464;-73
2022/03/12 02:55:34;;;;;;;0.20;0.20;;;;;;;4.13;43.91;101135.22;5055201;28;20107;-74
2022/03/12 02:58:00;;;;;;;0.20;0.20;;;;;;;4.10;43.91;101147.66;5055485;28;20028;-73
2022/03/12 03:00:26;;;;;;;0.20;0.20;;;;;;;4.08;42.85;101144.38;5037680;28;20091;-73
2022/03/12 03:02:54;;;;;;;0.20;0.20;;;;;;;3.95;43.08;101145.09;5037539;28;20083;-73
2022/03/12 03:05:38;;;;;;;0.20;0.20;;;;;;;3.86;43.73;101147.69;5055366;28;20079;-73
2022/03/12 03:08:07;;;;;;;0.20;0.20;;;;;;;3.80;43.79;101148.03;5055875;28;20029;-73
2022/03/12 03:10:34;;;;;;;0.20;0.20;;;;;;;3.79;43.95;101146.41;5037054;28;20061;-73
2022/03/12 03:13:19;;;;;;;0.20;0.20;;;;;;;3.78;44.05;101145.59;5037181;28;20028;-73
2022/03/12 03:16:01;;;;;;;0.20;0.20;;;;;;;3.65;45.06;101130.59;5037788;28;20044;-73
2022/03/12 03:18:35;;;;;;;0.20;0.20;;;;;;;3.85;44.72;101145.22;5055277;28;20029;-72
2022/03/12 03:21:02;;;;;;;0.20;0.20;;;;;;;3.98;45.09;101157.44;5055006;28;20087;-72
2022/03/12 03:23:30;;;;;;;0.20;0.20;;;;;;;3.98;45.13;101154.69;5017607;28;20485;-72
2022/03/12 03:25:56;;;;;;;0.20;0.20;;;;;;;3.86;45.85;101152.38;5017489;28;20029;-72
2022/03/12 03:28:22;;;;;;;0.20;0.20;;;;;;;4.00;45.50;101160.75;5035427;28;20464;-72
2022/03/12 03:30:47;;;;;;;0.20;0.20;;;;;;;3.84;46.88;101149.91;5017338;28;20025;-72
2022/03/12 03:33:16;;;;;;;0.20;0.20;;;;;;;3.74;47.45;101155.56;5017459;28;20083;-72
2022/03/12 03:35:43;;;;;;;0.20;0.20;;;;;;;3.87;47.33;101148.50;5027449;28;20025;-72
2022/03/12 03:38:11;;;;;;;0.20;0.20;;;;;;;3.88;46.77;101150.94;5034961;28;20032;-73
2022/03/12 03:40:37;;;;;;;0.22;0.22;;;;;;;3.59;46.75;101136.47;5017706;28;20040;-72
2022/03/12 03:43:06;;;;;;;0.20;0.20;;;;;;;3.57;47.92;101156.03;5016844;28;20120;-73
2022/03/12 03:45:31;;;;;;;0.20;0.20;;;;;;;3.38;48.22;101141.38;5017047;28;20108;-74
2022/03/12 03:47:57;;;;;;;0.20;0.20;;;;;;;3.51;48.24;101164.59;5017478;28;20116;-73
2022/03/12 03:50:26;;;;;;;0.20;0.20;;;;;;;3.41;49.06;101154.56;5033648;28;20034;-73
2022/03/12 03:53:03;;;;;;;0.20;0.20;;;;;;;3.48;49.09;101146.75;5034569;28;20021;-71
2022/03/12 03:55:33;;;;;;;0.20;0.20;;;;;;;3.48;49.53;101155.00;5017273;28;20045;-73
2022/03/12 03:58:00;;;;;;;0.20;0.20;;;;;;;3.46;49.00;101154.47;5016776;28;20037;-73
2022/03/12 04:00:27;;;;;;;0.20;0.20;;;;;;;3.39;49.81;101151.25;5034533;28;20028;-73
2022/03/12 04:03:07;;;;;;;0.20;0.20;;;;;;;3.24;49.01;101140.41;5016697;28;20042;-73
2022/03/12 04:05:38;;;;;;;0.20;0.20;;;;;;;3.29;48.91;101160.41;5034345;28;20060;-73
2022/03/12 04:08:07;;;;;;;0.20;0.20;;;;;;;3.40;48.34;101161.94;5034849;28;20372;-74
2022/03/12 04:10:35;;;;;;;0.20;0.20;;;;;;;3.27;49.09;101156.34;5034259;28;20025;-73
2022/03/12 04:13:02;;;;;;;0.20;0.20;;;;;;;2.98;49.09;101134.31;5016997;28;20022;-73
2022/03/12 04:15:28;;;;;;;0.20;0.20;;;;;;;3.24;49.41;101162.41;4999879;28;20086;-73
2022/03/12 04:17:54;;;;;;;0.20;0.20;;;;;;;3.10;49.10;101165.84;5034909;28;20108;-74
2022/03/12 04:20:21;;;;;;;0.20;0.20;;;;;;;3.31;43.60;101165.66;5016899;28;20029;-73
2022/03/12 04:22:48;;;;;;;0.20;0.20;;;;;;;3.25;47.14;101159.38;5047646;28;20053;-72
2022/03/12 04:25:15;;;;;;;0.20;0.20;;;;;;;3.21;46.08;101155.56;5036567;28;20380;-73
2022/03/12 04:27:44;;;;;;;0.20;0.20;;;;;;;3.19;45.83;101170.69;5036182;28;20044;-73
2022/03/12 04:30:14;;;;;;;0.20;0.20;;;;;;;3.08;45.63;101157.03;5053946;28;20479;-73
2022/03/12 04:32:42;;;;;;;0.20;0.20;;;;;;;3.08;45.62;101154.28;5036670;28;20178;-73
2022/03/12 04:35:09;;;;;;;0.20;0.20;;;;;;;3.19;45.07;101154.19;5036577;28;20021;-73
2022/03/12 04:37:36;;;;;;;0.20;0.20;;;;;;;3.24;44.53;101145.91;5054389;28;20490;-73
2022/03/12 04:40:10;;;;;;;0.20;0.20;;;;;;;3.22;45.09;101148.13;5035943;28;20033;-73
2022/03/12 04:42:36;;;;;;;;;;;;;;;3.17;45.17;101142.69;5053833;28;20472;-74
2022/03/12 04:45:01;;;;;;;0.20;0.20;;;;;;;3.10;44.81;101146.59;5035832;28;19954;-73
2022/03/12 04:47:27;;;;;;;0.20;0.20;;;;;;;3.20;44.77;101137.44;5035807;28;20033;-73
2022/03/12 04:49:52;;;;;;;0.20;0.20;;;;;;;3.23;45.06;101138.75;5035905;28;20116;-73
2022/03/12 04:52:18;;;;;;;0.20;0.20;;;;;;;3.07;45.20;101141.66;5036339;28;20056;-73
2022/03/12 04:54:44;;;;;;;0.20;0.20;;;;;;;2.95;44.84;101141.22;5053409;28;20033;-73
2022/03/12 04:57:09;;;;;;;0.20;0.20;;;;;;;2.89;44.53;101142.38;5035884;28;20116;-73
2022/03/12 04:59:35;;;;;;;0.20;0.20;;;;;;;2.88;45.14;101138.00;5036065;28;20060;-73
2022/03/12 05:02:02;;;;;;;0.20;0.20;;;;;;;2.95;45.23;101135.72;5053790;28;20410;-73
2022/03/12 05:04:28;;;;;;;0.20;0.20;;;;;;;2.97;44.52;101133.50;5053535;28;20025;-73
2022/03/12 05:06:53;;;;;;;0.20;0.20;;;;;;;3.15;44.08;101138.28;5054382;28;20040;-73
2022/03/12 05:09:19;;;;;;;0.20;0.20;;;;;;;3.21;44.53;101138.25;5054099;28;20033;-73
2022/03/12 05:11:45;;;;;;;0.22;0.20;;;;;;;3.19;44.32;101137.69;5020205;28;20029;-73
2022/03/12 05:14:15;;;;;;;0.20;0.20;;;;;;;3.09;45.29;101138.59;5038157;28;20033;-73
2022/03/12 05:16:44;;;;;;;0.20;0.20;;;;;;;3.09;45.93;101144.97;5056074;28;20043;-73
2022/03/12 05:19:10;;;;;;;0.20;0.20;;;;;;;2.99;45.37;101146.97;5036170;28;20033;-73
2022/03/12 05:21:35;;;;;;;0.20;0.20;;;;;;;2.87;45.07;101128.91;5035369;28;20530;-72
2022/03/12 05:24:01;;;;;;;0.20;0.20;;;;;;;2.91;44.89;101129.16;5035687;28;20044;-73
2022/03/12 05:26:27;;;;;;;0.20;0.20;;;;;;;2.69;44.80;101091.16;5035413;28;20029;-72
2022/03/12 05:28:52;;;;;;;0.20;0.20;;;;;;;2.95;45.31;101134.91;5036029;28;20033;-73
2022/03/12 05:31:18;;;;;;;0.20;0.20;;;;;;;2.98;44.83;101135.13;5053238;28;20032;-73
2022/03/12 05:33:44;;;;;;;0.20;0.20;;;;;;;3.91;43.26;101138.53;5035121;28;20025;-73
2022/03/12 05:36:10;;;;;;;0.20;0.20;;;;;;;4.75;41.56;101137.91;5053323;28;20025;-73
2022/03/12 05:38:36;;;;;;;0.20;0.20;;;;;;;5.33;39.57;101126.41;5018678;28;20033;-73
2022/03/12 05:41:09;;;;;;;0.20;0.20;;;;;;;6.17;38.06;101126.88;5053304;28;20032;-72
2022/03/12 05:43:43;;;;;;;0.20;0.20;;;;;;;7.00;37.72;101129.34;5053269;28;20051;-74
2022/03/12 05:46:11;;;;;;;0.20;0.20;;;;;;;7.71;34.49;101127.41;5032052;28;20116;-74
2022/03/12 05:48:37;;;;;;;0.20;0.20;;;;;;;8.49;33.98;101121.25;5035596;28;20087;-73
2022/03/12 05:51:03;;;;;;;0.20;0.20;;;;;;;9.14;33.27;101122.97;5053182;28;20023;-73
2022/03/12 05:53:32;;;;;;;0.20;0.20;;;;;;;9.74;32.00;101121.13;5035313;28;20032;-73
2022/03/12 05:55:58;;;;;;;0.20;0.20;;;;;;;10.25;31.10;101127.56;5055595;28;20029;-73
2022/03/12 05:58:26;;;;;;;0.20;0.20;;;;;;;10.65;31.33;101127.91;5036418;28;20050;-74
2022/03/12 06:00:54;;;;;;;0.20;0.20;;;;;;;11.14;30.75;101128.13;5036303;28;20033;-73
2022/03/12 06:03:21;;;;;;;0.20;0.20;;;;;;;11.62;30.01;101115.44;5056635;28;20024;-73
2022/03/12 06:05:54;;;;;;;0.20;0.20;;;;;;;11.99;29.90;101119.88;5056640;28;20064;-71
2022/03/12 06:08:22;;;;;;;0.20;0.20;;;;;;;12.31;28.65;101125.66;5038731;28;20059;-72
2022/03/12 06:10:51;;;;;;;0.20;0.20;;;;;;;12.47;27.67;101104.22;5039356;28;20456;-72
2022/03/12 06:13:17;;;;;;;0.20;0.20;;;;;;;12.88;27.11;101120.91;5056017;28;20025;-73
2022/03/12 06:15:43;;;;;;;0.20;0.20;;;;;;;13.28;27.28;101123.66;5056315;28;20124;-73
2022/03/12 06:18:08;;;;;;;0.20;0.20;;;;;;;13.39;26.19;101102.41;5056564;28;20025;-73
2022/03/12 06:20:37;;;;;;;0.20;0.20;;;;;;;13.82;25.51;101125.84;5056271;28;20116;-73
2022/03/12 06:23:03;;;;;;;0.20;0.20;;;;;;;14.03;25.16;101126.38;5055954;28;20052;-74
2022/03/12 06:25:29;;;;;;;0.20;0.20;;;;;;;13.96;24.51;101131.81;5056407;28;20029;-73
2022/03/12 06:27:55;;;;;;;0.20;0.20;;;;;;;14.26;23.91;101122.88;5038267;28;20067;-74
2022/03/12 06:30:26;;;;;;;0.20;0.20;;;;;;;14.75;23.76;101111.16;5038663;28;20029;-74
2022/03/12 06:32:57;;;;;;;0.10;0.10;;;;;;;15.01;22.71;101130.91;5038145;28;20059;-74
2022/03/12 06:35:24;;;;;;;0.20;0.20;;;;;;;15.32;22.14;101126.31;5038071;28;20032;-74
2022/03/12 06:37:50;;;;;;;0.20;0.20;;;;;;;15.53;22.38;101118.28;5055853;28;20033;-73
2022/03/12 06:40:16;;;;;;;0.10;0.10;;;;;;;15.36;21.88;101136.41;5038825;28;20087;-73
2022/03/12 06:42:43;;;;;;;0.20;0.20;;;;;;;15.53;21.68;101140.72;5038171;28;20033;-73
2022/03/12 06:45:10;;;;;;;0.10;0.10;;;;;;;14.74;21.11;101129.16;5037877;28;20025;-72
2022/03/12 06:47:38;;;;;;;0.20;0.20;;;;;;;15.25;21.00;101131.78;5055764;28;20476;-73
2022/03/12 06:50:08;;;;;;;0.20;0.20;;;;;;;16.07;20.93;101136.81;5037735;28;20040;-73
2022/03/12 06:52:34;;;;;;;0.20;0.20;;;;;;;16.16;20.59;101133.75;5037714;28;20033;-73
2022/03/12 06:55:00;;;;;;;0.10;0.10;;;;;;;16.48;20.18;101135.03;5038012;28;20025;-73
2022/03/12 06:57:26;;;;;;;0.20;0.20;;;;;;;16.89;20.32;101137.22;5055460;28;20514;-73
2022/03/12 06:59:51;;;;;;;0.20;0.20;;;;;;;16.85;19.92;101130.72;5037954;28;20033;-74
2022/03/12 07:02:17;;;;;;;0.20;0.20;;;;;;;16.83;20.10;101139.56;5055632;28;20138;-73
2022/03/12 07:04:42;;;;;;;0.20;0.20;;;;;;;16.94;19.78;101139.69;5037942;28;20031;-74
2022/03/12 07:07:08;;;;;;;0.20;0.20;;;;;;;16.69;18.65;101144.94;5056407;28;20032;-74
2022/03/12 07:09:36;;;;;;;0.20;0.20;;;;;;;15.86;20.49;101147.72;5037692;28;20033;-74
2022/03/12 07:12:03;;;;;;;0.10;0.10;;;;;;;16.20;19.89;101146.69;5055553;28;20035;-74
2022/03/12 07:14:30;;;;;;;0.10;0.10;;;;;;;16.84;19.57;101145.97;5038900;28;20043;-74
2022/03/12 07:16:56;;;;;;;0.10;0.10;;;;;;;17.39;18.76;101141.38;5038573;28;20069;-74
2022/03/12 07:19:22;;;;;;;0.20;0.20;;;;;;;16.66;19.43;101149.31;5037619;28;20060;-74
2022/03/12 07:21:49;;;;;;;0.10;0.10;;;;;;;17.25;18.99;101144.84;5055991;28;20480;-74
2022/03/12 07:24:16;;;;;;;0.10;0.10;;;;;;;17.78;17.95;101122.06;5038525;28;20025;-73
2022/03/12 07:26:41;;;;;;;0.20;0.20;;;;;;;17.03;18.28;101145.78;5056248;28;20032;-73
2022/03/12 07:29:07;;;;;;;0.10;0.10;;;;;;;16.81;18.43;101132.69;5056417;28;20075;-74
2022/03/12 07:31:33;;;;;;;0.10;0.10;;;;;;;17.03;18.60;101149.41;5038344;28;20032;-73
2022/03/12 07:33:58;;;;;;;0.20;0.20;;;;;;;17.63;17.80;101153.25;5038387;28;20025;-73
2022/03/12 07:36:24;;;;;;;0.10;0.10;;;;;;;16.28;18.68;101155.19;5038877;28;20032;-73
2022/03/12 07:38:49;;;;;;;0.10;0.10;;;;;;;16.30;18.83;101139.59;5055364;28;20048;-73
2022/03/12 07:41:15;;;;;;;0.20;0.20;;;;;;;17.52;18.47;101150.34;5037914;28;20463;-74
2022/03/12 07:43:41;;;;;;;0.10;0.10;;;;;;;17.78;17.90;101158.66;5056056;28;20024;-74
2022/03/12 07:46:07;;;;;;;0.10;0.10;;;;;;;17.94;17.39;101143.50;5038668;28;20033;-74
2022/03/12 07:48:33;;;;;;;0.20;0.20;;;;;;;18.14;17.48;101150.50;5057296;28;20035;-73
2022/03/12 07:51:00;;;;;;;0.20;0.20;;;;;;;18.30;17.19;101131.31;5057383;28;20037;-73
2022/03/12 07:53:26;;;;;;;0.10;0.10;;;;;;;18.47;16.77;101157.16;5038763;28;20379;-74
2022/03/12 07:55:51;;;;;;;0.10;0.10;;;;;;;18.47;16.99;101143.06;5057165;28;20037;-74
2022/03/12 07:58:17;;;;;;;0.10;0.10;;;;;;;18.81;17.14;101154.97;5039614;28;20130;-75
2022/03/12 08:00:43;;;;;;;0.10;0.10;;;;;;;18.78;17.36;101136.81;5040279;28;20387;-75
2022/03/12 08:03:09;;;;;;;0.10;0.10;;;;;;;18.90;16.93;101151.78;5041728;28;20033;-75
2022/03/12 08:05:35;;;;;;;0.10;0.10;;;;;;;18.76;16.14;101161.78;5041734;28;20029;-75
2022/03/12 08:08:02;;;;;;;0.10;0.10;;;;;;;18.79;16.74;101158.16;5058647;28;20051;-75
2022/03/12 08:10:29;;;;;;;0.10;0.10;;;;;;;17.18;16.65;101167.25;5041159;28;20110;-74
2022/03/12 08:12:58;;;;;;;0.10;0.10;;;;;;;17.65;17.09;101168.56;5039364;28;20372;-74
2022/03/12 08:15:24;;;;;;;0.10;0.10;;;;;;;15.79;17.54;101158.81;5036980;28;20029;-73
2022/03/12 08:17:49;;;;;;;0.10;0.10;;;;;;;15.71;17.98;101164.31;5054803;28;20352;-73
2022/03/12 08:20:18;;;;;;;0.20;0.20;;;;;;;16.59;17.59;101157.66;5036434;28;20467;-73
2022/03/12 08:22:45;;;;;;;0.20;0.20;;;;;;;15.94;18.17;101167.13;5005583;28;20414;-73
2022/03/12 08:25:13;;;;;;;0.20;0.20;;;;;;;16.24;17.99;101181.25;5033130;28;20036;-73
2022/03/12 08:27:39;;;;;;;0.10;0.10;;;;;;;15.97;17.65;101169.16;5054598;28;20037;-72
2022/03/12 08:30:07;;;;;;;0.10;0.10;;;;;;;15.31;18.86;101172.34;5054215;28;20371;-73
2022/03/12 08:32:35;;;;;;;0.10;0.10;;;;;;;15.41;18.78;101172.56;5053938;28;20048;-73
2022/03/12 08:35:01;;;;;;;0.10;0.10;;;;;;;15.03;19.02;101172.59;5053584;28;20425;-73
2022/03/12 08:37:27;;;;;;;0.10;0.10;;;;;;;15.14;18.93;101166.03;5053836;28;20048;-73
2022/03/12 08:39:53;;;;;;;0.10;0.10;;;;;;;16.11;19.00;101160.16;5035930;28;20065;-73
2022/03/12 08:42:18;;;;;;;0.20;0.20;;;;;;;16.73;18.68;101168.31;5035796;28;20037;-73
2022/03/12 08:44:44;;;;;;;0.20;0.20;;;;;;;15.79;19.09;101170.06;5036215;28;20036;-73
2022/03/12 08:47:10;;;;;;;0.17;0.17;;;;;;;15.42;19.12;101167.75;5036260;28;20437;-72
2022/03/12 08:49:35;;;;;;;0.10;0.10;;;;;;;15.51;19.50;101159.91;5035812;28;20476;-72
2022/03/12 08:52:01;;;;;;;0.10;0.10;;;;;;;14.24;21.11;101164.44;5035835;28;20025;-72
2022/03/12 08:54:27;;;;;;;0.10;0.10;;;;;;;14.57;20.41;101147.22;5020303;28;20071;-73
2022/03/12 08:56:52;;;;;;;0.10;0.10;;;;;;;14.44;21.10;101177.31;5053515;28;20476;-73
2022/03/12 08:59:19;;;;;;;0.15;0.15;;;;;;;15.35;21.05;101171.25;5035749;28;20025;-73
2022/03/12 09:01:45;;;;;;;0.20;0.20;;;;;;;16.51;20.19;101144.69;5053532;28;20112;-73
2022/03/12 09:04:11;;;;;;;0.20;0.20;;;;;;;14.42;21.32;101168.44;5036446;28;20136;-73
2022/03/12 09:06:37;;;;;;;0.10;0.10;;;;;;;14.24;21.81;101164.44;5053883;28;20053;-73
2022/03/12 09:09:04;;;;;;;0.20;0.20;;;;;;;13.92;22.04;101158.88;5054069;28;20037;-73
2022/03/12 09:11:31;;;;;;;0.20;0.20;;;;;;;13.31;22.70;101150.88;5053732;28;20431;-73
2022/03/12 09:13:57;;;;;;;0.20;0.20;;;;;;;12.34;24.60;101175.16;5053729;28;20060;-73
2022/03/12 09:16:22;;;;;;;0.20;0.20;;;;;;;13.21;23.15;101162.56;5053711;28;20029;-73
2022/03/12 09:18:48;;;;;;;0.15;0.15;;;;;;;13.56;23.25;101145.97;5036091;28;20044;-73
2022/03/12 09:21:14;;;;;;;0.20;0.20;;;;;;;13.14;24.34;101168.75;5035203;28;20025;-73
2022/03/12 09:23:40;;;;;;;0.20;0.20;;;;;;;11.51;25.42;101160.47;5035572;28;20124;-72
2022/03/12 09:26:06;;;;;;;0.15;0.15;;;;;;;11.43;26.23;101155.81;5035464;28;20061;-72
2022/03/12 09:28:32;;;;;;;0.20;0.20;;;;;;;11.14;26.62;101167.09;5035474;28;20028;-72
2022/03/12 10:03:09;;;;;;;0.20;0.20;;;;;;;13.07;23.86;101158.19;6266295;22;1751553;-75
2022/03/12 10:05:38;;;;;;;0.20;0.20;;;;;;;13.20;23.23;101150.56;6318849;22;20426;-75
2022/03/12 10:08:06;;;;;;;0.20;0.20;;;;;;;13.14;23.20;101157.59;6318061;22;20018;-75
2022/03/12 10:10:35;;;;;;;0.20;0.20;;;;;;;12.83;22.68;101144.31;6319248;22;20003;-75
2022/03/12 10:13:04;;;;;;;0.20;0.20;;;;;;;13.28;22.84;101151.63;6319335;22;20007;-75
2022/03/12 10:15:35;;;;;;;0.15;0.15;;;;;;;13.12;23.40;101159.94;6320851;22;20010;-75
2022/03/12 10:18:07;;;;;;;0.10;0.10;;;;;;;13.69;23.82;101141.09;6323694;22;19999;-76
2022/03/12 10:20:47;;;;;;;0.17;0.17;;;;;;;13.82;23.41;101153.81;6320591;22;20011;-75
2022/03/12 10:23:18;;;;;;;0.20;0.20;;;;;;;13.79;23.78;101148.94;6319589;22;20407;-75
2022/03/12 10:25:45;;;;;;;0.20;0.20;;;;;;;14.40;22.95;101137.22;6320186;22;20007;-76
2022/03/12 10:28:12;;;;;;;0.20;0.20;;;;;;;15.10;21.53;101139.91;6321344;22;20007;-75
2022/03/12 10:30:38;;;;;;;0.20;0.20;;;;;;;14.87;21.62;101130.66;6321750;22;20010;-76
2022/03/12 10:33:25;;;;;;;0.20;0.20;;;;;;;15.80;20.98;101126.78;6322633;22;20086;-76
2022/03/12 10:35:56;;;;;;;0.20;0.20;;;;;;;16.47;19.89;101122.19;6318328;22;20078;-76
2022/03/12 10:45:29;;;;;;;0.20;0.20;;;;;;;16.02;20.84;101109.06;6310735;22;20435;-76
2022/03/12 10:48:02;;;;;;;0.10;0.10;;;;;;;14.45;21.85;101111.72;6310044;22;20011;-76
2022/03/12 10:50:42;;;;;;;0.20;0.20;;;;;;;13.73;22.84;101105.63;6309782;22;20011;-76
2022/03/12 10:53:12;;;;;;;0.20;0.20;;;;;;;13.04;22.98;101091.84;6310765;22;20007;-75
2022/03/12 10:56:05;;;;;;;0.20;0.20;;;;;;;13.58;22.67;101110.06;6310452;22;20006;-76
2022/03/12 10:58:35;;;;;;;0.10;0.10;;;;;;;13.30;23.03;101101.75;6311413;22;20004;-76
2022/03/12 11:01:06;;;;;;;0.20;0.20;;;;;;;13.63;23.31;101093.84;6311678;22;20093;-76
2022/03/12 11:03:37;;;;;;;0.20;0.20;;;;;;;13.69;23.13;101099.13;6311573;22;20081;-76
2022/03/12 11:06:23;;;;;;;0.20;0.20;;;;;;;14.91;22.85;101095.09;6285527;22;20011;-76
2022/03/12 11:08:51;;;;;;;0.20;0.20;;;;;;;13.75;23.75;101092.13;6310543;22;20065;-75
2022/03/12 11:14:15;;;;;;;0.20;0.20;;;;;;;13.71;23.59;101085.63;6312780;22;20378;-76
2022/03/12 11:16:41;;;;;;;0.20;0.20;;;;;;;13.65;23.65;101075.88;6313539;22;20003;-76
2022/03/12 11:19:11;;;;;;;0.20;0.20;;;;;;;14.16;23.74;101077.47;6310897;22;20137;-76
2022/03/12 11:21:44;;;;;;;0.20;0.20;;;;;;;14.81;23.24;101087.31;6314638;22;20007;-74
2022/03/12 11:24:17;;;;;;;0.20;0.20;;;;;;;15.39;23.01;101081.56;6312313;22;20034;-76
2022/03/12 11:26:58;;;;;;;0.20;0.20;;;;;;;15.03;22.31;101075.31;6312461;22;20043;-76
2022/03/12 11:29:33;;;;;;;0.20;0.20;;;;;;;13.87;23.54;101083.63;6311847;22;20482;-76
2022/03/12 11:32:09;;;;;;;0.20;0.20;;;;;;;13.16;24.60;101065.84;6308758;22;20039;-76
2022/03/12 11:38:36;;;;;;;0.20;0.20;;;;;;;12.90;24.64;101079.50;6309627;22;20017;-75
2022/03/12 11:41:27;;;;;;;1.67;0.20;;;;;;;12.58;24.60;101065.44;6282054;22;20015;-76
2022/03/12 11:43:58;;;;;;;0.20;0.20;;;;;;;12.62;26.20;101073.91;6309584;22;20019;-76
2022/03/12 11:46:52;;;;;;;0.10;0.10;;;;;;;12.52;26.19;101059.31;6308728;22;20007;-76
2022/03/12 11:49:21;;;;;;;0.20;0.20;;;;;;;12.06;26.03;101069.06;6287393;22;20007;-76
2022/03/12 11:51:56;;;;;;;0.20;0.20;;;;;;;12.38;25.15;101056.09;6309031;22;20035;-75
2022/03/12 11:54:22;;;;;;;0.20;0.20;;;;;;;13.17;24.75;101052.69;6312428;22;20003;-76
2022/03/12 11:57:00;;;;;;;0.20;0.20;;;;;;;13.50;24.98;101050.38;6311877;22;20014;-76
2022/03/12 11:59:30;;;;;;;0.20;0.20;;;;;;;12.76;25.99;101040.81;6309760;22;20014;-76
2022/03/12 12:02:29;;;;;;;0.20;0.20;;;;;;;12.51;25.80;101042.88;6311631;22;20035;-76
2022/03/12 12:04:58;;;;;;;0.20;0.20;;;;;;;12.57;25.94;101047.06;6304735;22;20351;-75
2022/03/12 12:07:36;;;;;;;0.20;0.20;;;;;;;12.81;26.71;101029.38;6312028;22;20101;-76
2022/03/12 12:10:06;;;;;;;0.20;0.20;;;;;;;12.75;27.15;101040.00;6314325;22;20007;-75
2022/03/12 12:12:35;;;;;;;0.13;0.13;;;;;;;12.62;27.01;101029.22;6312861;22;20014;-76
2022/03/12 12:15:07;;;;;;;0.10;0.10;;;;;;;12.73;26.89;101031.19;6309296;22;20415;-75
2022/03/12 12:17:40;;;;;;;0.10;0.10;;;;;;;13.01;26.57;101002.38;6308734;22;20034;-75
2022/03/12 12:20:09;;;;;;;0.15;0.15;;;;;;;12.63;25.58;101025.28;6310939;22;20362;-75